sensor_id;sensor_type;location;lat;lon;timestamp;pressure;altitude;pressure_sealevel;temperature;humidity
37610;BME280;23457;51.966;8.230;2023-04-30T00:00:41;101615.94;;;8.21;100.00
37610;BME280;23457;51.966;8.230;2023-04-30T00:03:07;101612.41;;;8.19;100.00
37610;BME280;23457;51.966;8.230;2023-04-30T00:05:34;101614.19;;;8.20;100.00
37610;BME280;23457;51.966;8.230;2023-04-30T00:08:01;101617.53;;;8.18;100.00
37610;BME280;23457;51.966;8.230;2023-04-30T00:10:28;101620.69;;;7.90;100.00
37610;BME280;23457;51.966;8.230;2023-04-30T00:12:54;101618.59;;;8.02;100.00
37610;BME280;23457;51.966;8.230;2023-04-30T00:15:22;101622.50;;;8.13;100.00
37610;BME280;23457;51.966;8.230;2023-04-30T00:17:49;101622.63;;;8.16;100.00
37610;BME280;23457;51.966;8.230;2023-04-30T00:20:16;101624.81;;;8.06;100.00
37610;BME280;23457;51.966;8.230;2023-04-30T00:22:42;101630.03;;;8.07;100.00
37610;BME280;23457;51.966;8.230;2023-04-30T00:25:09;101622.53;;;7.93;100.00
37610;BME280;23457;51.966;8.230;2023-04-30T00:27:36;101626.06;;;7.95;100.00
37610;BME280;23457;51.966;8.230;2023-04-30T00:30:06;101628.66;;;7.95;100.00
37610;BME280;23457;51.966;8.230;2023-04-30T00:32:34;101627.44;;;7.86;100.00
37610;BME280;23457;51.966;8.230;2023-04-30T00:35:01;101621.97;;;7.79;100.00
37610;BME280;23457;51.966;8.230;2023-04-30T00:37:27;101632.00;;;7.71;100.00
37610;BME280;23457;51.966;8.230;2023-04-30T00:39:54;101634.31;;;7.65;100.00
37610;BME280;23457;51.966;8.230;2023-04-30T00:42:21;101629.16;;;7.65;100.00
37610;BME280;23457;51.966;8.230;2023-04-30T00:44:48;101640.13;;;7.60;100.00
37610;BME280;23457;51.966;8.230;2023-04-30T00:47:14;101636.66;;;7.59;100.00
37610;BME280;23457;51.966;8.230;2023-04-30T00:49:41;101646.00;;;7.55;100.00
37610;BME280;23457;51.966;8.230;2023-04-30T00:52:08;101640.97;;;7.59;100.00
37610;BME280;23457;51.966;8.230;2023-04-30T00:54:34;101645.03;;;7.53;100.00
37610;BME280;23457;51.966;8.230;2023-04-30T00:57:02;101645.84;;;7.52;100.00
37610;BME280;23457;51.966;8.230;2023-04-30T00:59:31;101647.34;;;7.47;100.00
37610;BME280;23457;51.966;8.230;2023-04-30T01:01:58;101661.13;;;7.46;100.00
37610;BME280;23457;51.966;8.230;2023-04-30T01:04:25;101659.44;;;7.47;100.00
37610;BME280;23457;51.966;8.230;2023-04-30T01:06:51;101657.03;;;7.32;100.00
37610;BME280;23457;51.966;8.230;2023-04-30T01:09:18;101662.06;;;7.29;100.00
37610;BME280;23457;51.966;8.230;2023-04-30T01:15:18;101668.47;;;7.18;100.00
37610;BME280;23457;51.966;8.230;2023-04-30T01:18:25;101664.84;;;7.14;100.00
37610;BME280;23457;51.966;8.230;2023-04-30T01:21:00;101666.69;;;7.17;100.00
37610;BME280;23457;51.966;8.230;2023-04-30T01:28:39;101672.97;;;6.85;100.00
37610;BME280;23457;51.966;8.230;2023-04-30T01:31:12;101668.59;;;6.82;100.00
37610;BME280;23457;51.966;8.230;2023-04-30T01:33:39;101668.84;;;6.89;100.00
37610;BME280;23457;51.966;8.230;2023-04-30T01:36:28;101671.81;;;6.96;100.00
37610;BME280;23457;51.966;8.230;2023-04-30T01:39:10;101671.34;;;6.87;100.00
37610;BME280;23457;51.966;8.230;2023-04-30T01:42:35;101667.00;;;6.86;100.00
37610;BME280;23457;51.966;8.230;2023-04-30T01:47:30;101665.03;;;6.80;100.00
37610;BME280;23457;51.966;8.230;2023-04-30T01:57:36;101668.84;;;6.89;100.00
37610;BME280;23457;51.966;8.230;2023-04-30T02:00:04;101664.88;;;6.95;100.00
37610;BME280;23457;51.966;8.230;2023-04-30T02:02:38;101671.41;;;7.06;100.00
37610;BME280;23457;51.966;8.230;2023-04-30T02:05:05;101667.31;;;7.11;100.00
37610;BME280;23457;51.966;8.230;2023-04-30T02:07:41;101674.25;;;7.12;100.00
37610;BME280;23457;51.966;8.230;2023-04-30T02:10:12;101681.09;;;7.12;100.00
37610;BME280;23457;51.966;8.230;2023-04-30T02:12:40;101676.69;;;7.09;100.00
37610;BME280;23457;51.966;8.230;2023-04-30T02:15:07;101682.88;;;6.94;100.00
37610;BME280;23457;51.966;8.230;2023-04-30T02:17:34;101683.88;;;6.97;100.00
37610;BME280;23457;51.966;8.230;2023-04-30T02:20:01;101690.56;;;6.92;100.00
37610;BME280;23457;51.966;8.230;2023-04-30T02:22:28;101690.88;;;6.80;100.00
37610;BME280;23457;51.966;8.230;2023-04-30T02:24:55;101684.50;;;6.92;100.00
37610;BME280;23457;51.966;8.230;2023-04-30T02:27:24;101694.84;;;6.92;100.00
37610;BME280;23457;51.966;8.230;2023-04-30T02:29:53;101690.00;;;6.80;100.00
37610;BME280;23457;51.966;8.230;2023-04-30T02:32:20;101688.53;;;6.67;100.00
37610;BME280;23457;51.966;8.230;2023-04-30T02:34:47;101695.47;;;6.68;100.00
37610;BME280;23457;51.966;8.230;2023-04-30T02:37:14;101706.31;;;6.61;100.00
37610;BME280;23457;51.966;8.230;2023-04-30T02:39:41;101699.56;;;6.45;100.00
37610;BME280;23457;51.966;8.230;2023-04-30T02:42:08;101699.75;;;6.50;100.00
37610;BME280;23457;51.966;8.230;2023-04-30T02:44:35;101698.13;;;6.52;100.00
37610;BME280;23457;51.966;8.230;2023-04-30T02:47:02;101693.13;;;6.55;100.00
37610;BME280;23457;51.966;8.230;2023-04-30T02:49:30;101695.25;;;6.64;100.00
37610;BME280;23457;51.966;8.230;2023-04-30T02:51:57;101689.19;;;6.63;100.00
37610;BME280;23457;51.966;8.230;2023-04-30T02:54:23;101693.84;;;6.53;100.00
37610;BME280;23457;51.966;8.230;2023-04-30T02:56:50;101701.53;;;6.51;100.00
37610;BME280;23457;51.966;8.230;2023-04-30T02:59:17;101708.09;;;6.44;100.00
37610;BME280;23457;51.966;8.230;2023-04-30T03:01:43;101706.25;;;6.42;100.00
37610;BME280;23457;51.966;8.230;2023-04-30T03:04:10;101716.00;;;6.30;100.00
37610;BME280;23457;51.966;8.230;2023-04-30T03:06:37;101707.44;;;6.31;100.00
37610;BME280;23457;51.966;8.230;2023-04-30T03:09:04;101714.50;;;6.35;100.00
37610;BME280;23457;51.966;8.230;2023-04-30T03:11:30;101715.78;;;6.43;100.00
37610;BME280;23457;51.966;8.230;2023-04-30T03:13:57;101716.78;;;6.46;100.00
37610;BME280;23457;51.966;8.230;2023-04-30T03:16:24;101715.63;;;6.40;100.00
37610;BME280;23457;51.966;8.230;2023-04-30T03:18:50;101704.97;;;6.34;100.00
37610;BME280;23457;51.966;8.230;2023-04-30T03:21:17;101712.44;;;6.28;100.00
37610;BME280;23457;51.966;8.230;2023-04-30T03:23:44;101708.91;;;6.26;100.00
37610;BME280;23457;51.966;8.230;2023-04-30T03:26:11;101709.25;;;6.16;100.00
37610;BME280;23457;51.966;8.230;2023-04-30T03:28:38;101719.34;;;6.11;100.00
37610;BME280;23457;51.966;8.230;2023-04-30T03:31:04;101716.41;;;6.03;100.00
37610;BME280;23457;51.966;8.230;2023-04-30T03:33:31;101716.84;;;5.95;100.00
37610;BME280;23457;51.966;8.230;2023-04-30T03:35:59;101715.78;;;5.91;100.00
37610;BME280;23457;51.966;8.230;2023-04-30T03:38:25;101723.59;;;5.93;100.00
37610;BME280;23457;51.966;8.230;2023-04-30T03:40:52;101715.25;;;5.98;100.00
37610;BME280;23457;51.966;8.230;2023-04-30T03:43:19;101715.09;;;5.95;100.00
37610;BME280;23457;51.966;8.230;2023-04-30T03:45:46;101727.00;;;6.09;100.00
37610;BME280;23457;51.966;8.230;2023-04-30T03:48:12;101718.97;;;6.03;100.00
37610;BME280;23457;51.966;8.230;2023-04-30T03:50:39;101712.22;;;5.89;100.00
37610;BME280;23457;51.966;8.230;2023-04-30T03:53:06;101711.41;;;5.74;100.00
37610;BME280;23457;51.966;8.230;2023-04-30T03:55:33;101709.56;;;5.71;100.00
37610;BME280;23457;51.966;8.230;2023-04-30T03:58:00;101700.94;;;5.71;100.00
37610;BME280;23457;51.966;8.230;2023-04-30T04:00:27;101708.50;;;5.84;100.00
37610;BME280;23457;51.966;8.230;2023-04-30T04:02:54;101706.88;;;5.86;100.00
37610;BME280;23457;51.966;8.230;2023-04-30T04:05:20;101703.69;;;5.90;100.00
37610;BME280;23457;51.966;8.230;2023-04-30T04:07:47;101709.97;;;5.79;100.00
37610;BME280;23457;51.966;8.230;2023-04-30T04:10:14;101700.72;;;5.66;100.00
37610;BME280;23457;51.966;8.230;2023-04-30T04:12:40;101700.81;;;5.68;100.00
37610;BME280;23457;51.966;8.230;2023-04-30T04:15:07;101699.03;;;5.67;100.00
37610;BME280;23457;51.966;8.230;2023-04-30T04:17:34;101699.25;;;5.71;100.00
37610;BME280;23457;51.966;8.230;2023-04-30T04:20:01;101694.84;;;5.69;100.00
37610;BME280;23457;51.966;8.230;2023-04-30T04:22:32;101703.03;;;5.78;100.00
37610;BME280;23457;51.966;8.230;2023-04-30T04:24:59;101708.91;;;5.75;100.00
37610;BME280;23457;51.966;8.230;2023-04-30T04:27:28;101708.75;;;5.72;100.00
37610;BME280;23457;51.966;8.230;2023-04-30T04:29:54;101709.91;;;5.61;100.00
37610;BME280;23457;51.966;8.230;2023-04-30T04:32:21;101710.50;;;5.56;100.00
37610;BME280;23457;51.966;8.230;2023-04-30T04:34:49;101717.47;;;5.58;100.00
37610;BME280;23457;51.966;8.230;2023-04-30T04:37:15;101718.59;;;5.47;100.00
37610;BME280;23457;51.966;8.230;2023-04-30T04:39:43;101720.63;;;5.53;100.00
37610;BME280;23457;51.966;8.230;2023-04-30T04:42:11;101725.06;;;5.55;100.00
37610;BME280;23457;51.966;8.230;2023-04-30T04:44:37;101727.94;;;5.61;100.00
37610;BME280;23457;51.966;8.230;2023-04-30T04:47:04;101723.50;;;5.75;100.00
37610;BME280;23457;51.966;8.230;2023-04-30T04:49:31;101716.41;;;5.71;100.00
37610;BME280;23457;51.966;8.230;2023-04-30T04:51:58;101733.81;;;5.75;100.00
37610;BME280;23457;51.966;8.230;2023-04-30T04:54:25;101721.00;;;5.76;100.00
37610;BME280;23457;51.966;8.230;2023-04-30T04:56:51;101733.28;;;5.64;100.00
37610;BME280;23457;51.966;8.230;2023-04-30T04:59:18;101725.91;;;5.72;100.00
37610;BME280;23457;51.966;8.230;2023-04-30T05:01:46;101730.28;;;5.73;100.00
37610;BME280;23457;51.966;8.230;2023-04-30T05:04:13;101724.31;;;5.90;100.00
37610;BME280;23457;51.966;8.230;2023-04-30T05:06:40;101720.06;;;6.08;100.00
37610;BME280;23457;51.966;8.230;2023-04-30T05:09:08;101722.25;;;6.17;100.00
37610;BME280;23457;51.966;8.230;2023-04-30T05:11:35;101720.28;;;6.29;100.00
37610;BME280;23457;51.966;8.230;2023-04-30T05:14:01;101721.44;;;6.36;100.00
37610;BME280;23457;51.966;8.230;2023-04-30T05:16:28;101727.28;;;6.50;100.00
37610;BME280;23457;51.966;8.230;2023-04-30T05:18:55;101724.38;;;6.61;100.00
37610;BME280;23457;51.966;8.230;2023-04-30T05:21:22;101714.22;;;6.64;100.00
37610;BME280;23457;51.966;8.230;2023-04-30T05:23:48;101721.72;;;6.77;100.00
37610;BME280;23457;51.966;8.230;2023-04-30T05:26:15;101715.22;;;6.86;100.00
37610;BME280;23457;51.966;8.230;2023-04-30T05:28:42;101712.28;;;6.96;100.00
37610;BME280;23457;51.966;8.230;2023-04-30T05:31:08;101723.41;;;6.95;100.00
37610;BME280;23457;51.966;8.230;2023-04-30T05:33:35;101715.75;;;7.15;100.00
37610;BME280;23457;51.966;8.230;2023-04-30T05:36:02;101716.09;;;7.42;100.00
37610;BME280;23457;51.966;8.230;2023-04-30T05:38:29;101716.38;;;7.48;100.00
37610;BME280;23457;51.966;8.230;2023-04-30T05:40:55;101709.84;;;7.57;100.00
37610;BME280;23457;51.966;8.230;2023-04-30T05:43:22;101714.31;;;7.61;100.00
37610;BME280;23457;51.966;8.230;2023-04-30T05:45:49;101717.31;;;7.70;100.00
37610;BME280;23457;51.966;8.230;2023-04-30T05:48:15;101725.25;;;7.74;100.00
37610;BME280;23457;51.966;8.230;2023-04-30T05:50:42;101727.78;;;7.73;100.00
37610;BME280;23457;51.966;8.230;2023-04-30T05:53:09;101732.63;;;7.84;100.00
37610;BME280;23457;51.966;8.230;2023-04-30T05:55:35;101736.34;;;7.91;100.00
37610;BME280;23457;51.966;8.230;2023-04-30T05:58:02;101732.88;;;7.90;100.00
37610;BME280;23457;51.966;8.230;2023-04-30T06:00:29;101745.22;;;7.96;100.00
37610;BME280;23457;51.966;8.230;2023-04-30T06:02:56;101744.78;;;8.06;100.00
37610;BME280;23457;51.966;8.230;2023-04-30T06:05:23;101745.91;;;8.13;100.00
37610;BME280;23457;51.966;8.230;2023-04-30T06:07:49;101753.06;;;8.18;100.00
37610;BME280;23457;51.966;8.230;2023-04-30T06:10:16;101751.59;;;8.44;100.00
37610;BME280;23457;51.966;8.230;2023-04-30T06:12:43;101746.56;;;8.49;100.00
37610;BME280;23457;51.966;8.230;2023-04-30T06:15:10;101743.16;;;8.50;100.00
37610;BME280;23457;51.966;8.230;2023-04-30T06:17:36;101741.91;;;8.61;100.00
37610;BME280;23457;51.966;8.230;2023-04-30T06:20:03;101745.25;;;8.58;100.00
37610;BME280;23457;51.966;8.230;2023-04-30T06:22:32;101739.47;;;8.66;100.00
37610;BME280;23457;51.966;8.230;2023-04-30T06:24:59;101748.63;;;8.78;100.00
37610;BME280;23457;51.966;8.230;2023-04-30T06:27:26;101755.78;;;8.63;100.00
37610;BME280;23457;51.966;8.230;2023-04-30T06:29:58;101758.06;;;8.76;100.00
37610;BME280;23457;51.966;8.230;2023-04-30T06:32:26;101754.41;;;8.71;100.00
37610;BME280;23457;51.966;8.230;2023-04-30T06:34:54;101760.31;;;8.89;100.00
37610;BME280;23457;51.966;8.230;2023-04-30T06:37:21;101754.38;;;8.92;100.00
37610;BME280;23457;51.966;8.230;2023-04-30T06:39:48;101761.50;;;8.97;97.13
37610;BME280;23457;51.966;8.230;2023-04-30T06:42:14;101755.19;;;8.91;97.35
37610;BME280;23457;51.966;8.230;2023-04-30T06:44:41;101763.09;;;8.94;99.64
37610;BME280;23457;51.966;8.230;2023-04-30T06:47:08;101750.00;;;8.91;98.89
37610;BME280;23457;51.966;8.230;2023-04-30T06:49:34;101749.56;;;9.25;97.29
37610;BME280;23457;51.966;8.230;2023-04-30T06:52:01;101751.78;;;9.38;97.68
37610;BME280;23457;51.966;8.230;2023-04-30T06:54:28;101750.97;;;9.39;96.15
37610;BME280;23457;51.966;8.230;2023-04-30T06:56:55;101751.47;;;9.29;95.61
37610;BME280;23457;51.966;8.230;2023-04-30T06:59:21;101757.22;;;9.44;95.52
37610;BME280;23457;51.966;8.230;2023-04-30T07:01:48;101758.44;;;9.54;94.27
37610;BME280;23457;51.966;8.230;2023-04-30T07:04:14;101755.47;;;9.43;93.25
37610;BME280;23457;51.966;8.230;2023-04-30T07:06:41;101757.00;;;9.38;92.02
37610;BME280;23457;51.966;8.230;2023-04-30T07:09:08;101743.44;;;9.45;93.66
37610;BME280;23457;51.966;8.230;2023-04-30T07:11:35;101761.34;;;9.61;92.46
37610;BME280;23457;51.966;8.230;2023-04-30T07:14:02;101759.44;;;9.57;92.07
37610;BME280;23457;51.966;8.230;2023-04-30T07:16:29;101754.00;;;9.51;91.79
37610;BME280;23457;51.966;8.230;2023-04-30T07:18:57;101755.53;;;9.68;91.55
37610;BME280;23457;51.966;8.230;2023-04-30T07:21:25;101754.00;;;9.74;89.29
37610;BME280;23457;51.966;8.230;2023-04-30T07:23:53;101751.41;;;9.74;88.69
37610;BME280;23457;51.966;8.230;2023-04-30T07:26:19;101758.88;;;9.90;87.79
37610;BME280;23457;51.966;8.230;2023-04-30T07:28:46;101758.47;;;10.03;87.79
37610;BME280;23457;51.966;8.230;2023-04-30T07:31:14;101757.97;;;10.13;86.75
37610;BME280;23457;51.966;8.230;2023-04-30T07:33:40;101755.69;;;9.97;85.24
37610;BME280;23457;51.966;8.230;2023-04-30T07:36:07;101759.00;;;9.93;87.87
37610;BME280;23457;51.966;8.230;2023-04-30T07:38:34;101761.00;;;10.00;87.04
37610;BME280;23457;51.966;8.230;2023-04-30T07:41:01;101762.31;;;10.14;88.33
37610;BME280;23457;51.966;8.230;2023-04-30T07:43:28;101756.72;;;10.26;86.89
37610;BME280;23457;51.966;8.230;2023-04-30T07:45:57;101755.44;;;10.40;87.10
37610;BME280;23457;51.966;8.230;2023-04-30T07:48:24;101753.31;;;10.28;84.61
37610;BME280;23457;51.966;8.230;2023-04-30T07:50:51;101747.44;;;10.34;83.51
37610;BME280;23457;51.966;8.230;2023-04-30T07:53:18;101750.78;;;10.57;83.59
37610;BME280;23457;51.966;8.230;2023-04-30T07:55:45;101752.16;;;10.46;84.93
37610;BME280;23457;51.966;8.230;2023-04-30T07:58:11;101745.88;;;10.66;84.51
37610;BME280;23457;51.966;8.230;2023-04-30T08:00:38;101746.94;;;10.71;82.63
37610;BME280;23457;51.966;8.230;2023-04-30T08:03:05;101749.63;;;10.74;84.57
37610;BME280;23457;51.966;8.230;2023-04-30T08:05:32;101757.72;;;10.83;78.81
37610;BME280;23457;51.966;8.230;2023-04-30T08:07:58;101762.38;;;10.66;78.39
37610;BME280;23457;51.966;8.230;2023-04-30T08:10:27;101766.00;;;10.98;80.82
37610;BME280;23457;51.966;8.230;2023-04-30T08:12:53;101760.78;;;10.98;78.26
37610;BME280;23457;51.966;8.230;2023-04-30T08:15:23;101758.16;;;10.97;77.82
37610;BME280;23457;51.966;8.230;2023-04-30T08:17:50;101764.59;;;11.09;76.53
37610;BME280;23457;51.966;8.230;2023-04-30T08:20:18;101754.09;;;11.06;77.67
37610;BME280;23457;51.966;8.230;2023-04-30T08:22:45;101759.66;;;11.19;77.35
37610;BME280;23457;51.966;8.230;2023-04-30T08:25:12;101758.94;;;11.23;77.19
37610;BME280;23457;51.966;8.230;2023-04-30T08:27:40;101769.59;;;11.32;76.16
37610;BME280;23457;51.966;8.230;2023-04-30T08:30:07;101764.81;;;11.45;74.86
37610;BME280;23457;51.966;8.230;2023-04-30T08:32:35;101763.00;;;11.43;75.68
37610;BME280;23457;51.966;8.230;2023-04-30T08:35:05;101756.75;;;11.36;77.37
37610;BME280;23457;51.966;8.230;2023-04-30T08:37:31;101754.25;;;11.41;77.40
37610;BME280;23457;51.966;8.230;2023-04-30T08:40:05;101748.16;;;11.40;76.88
37610;BME280;23457;51.966;8.230;2023-04-30T08:42:43;101753.41;;;11.42;78.12
37610;BME280;23457;51.966;8.230;2023-04-30T08:45:11;101747.66;;;11.54;80.17
37610;BME280;23457;51.966;8.230;2023-04-30T08:47:47;101752.25;;;11.92;78.51
37610;BME280;23457;51.966;8.230;2023-04-30T08:50:19;101757.41;;;11.91;73.12
37610;BME280;23457;51.966;8.230;2023-04-30T08:52:45;101750.47;;;11.90;73.57
37610;BME280;23457;51.966;8.230;2023-04-30T08:55:12;101748.88;;;11.65;74.83
37610;BME280;23457;51.966;8.230;2023-04-30T08:57:39;101746.47;;;11.72;75.88
37610;BME280;23457;51.966;8.230;2023-04-30T09:00:06;101753.47;;;12.05;73.59
37610;BME280;23457;51.966;8.230;2023-04-30T09:02:34;101753.47;;;12.38;71.53
37610;BME280;23457;51.966;8.230;2023-04-30T09:05:01;101746.19;;;12.25;70.20
37610;BME280;23457;51.966;8.230;2023-04-30T09:07:32;101741.97;;;12.31;73.69
37610;BME280;23457;51.966;8.230;2023-04-30T09:10:22;101745.72;;;12.41;70.17
37610;BME280;23457;51.966;8.230;2023-04-30T09:13:08;101741.59;;;12.16;72.49
37610;BME280;23457;51.966;8.230;2023-04-30T09:15:38;101739.78;;;12.12;70.41
37610;BME280;23457;51.966;8.230;2023-04-30T09:18:19;101736.59;;;12.24;69.84
37610;BME280;23457;51.966;8.230;2023-04-30T09:21:00;101742.88;;;12.66;69.17
37610;BME280;23457;51.966;8.230;2023-04-30T09:23:31;101744.34;;;12.56;67.97
37610;BME280;23457;51.966;8.230;2023-04-30T09:25:57;101737.53;;;12.62;68.63
37610;BME280;23457;51.966;8.230;2023-04-30T09:28:24;101740.63;;;12.83;67.04
37610;BME280;23457;51.966;8.230;2023-04-30T09:30:56;101744.81;;;12.75;68.29
37610;BME280;23457;51.966;8.230;2023-04-30T09:33:23;101747.84;;;12.95;67.40
37610;BME280;23457;51.966;8.230;2023-04-30T09:35:50;101734.84;;;12.96;69.56
37610;BME280;23457;51.966;8.230;2023-04-30T09:41:20;101739.81;;;12.85;65.78
37610;BME280;23457;51.966;8.230;2023-04-30T09:43:47;101737.09;;;13.17;65.12
37610;BME280;23457;51.966;8.230;2023-04-30T09:46:14;101737.19;;;13.21;63.89
37610;BME280;23457;51.966;8.230;2023-04-30T09:48:44;101736.72;;;13.41;63.72
37610;BME280;23457;51.966;8.230;2023-04-30T09:51:13;101731.16;;;13.66;66.31
37610;BME280;23457;51.966;8.230;2023-04-30T09:53:41;101731.78;;;13.54;60.60
37610;BME280;23457;51.966;8.230;2023-04-30T09:56:10;101730.94;;;13.57;60.92
37610;BME280;23457;51.966;8.230;2023-04-30T09:58:37;101724.38;;;13.77;59.69
37610;BME280;23457;51.966;8.230;2023-04-30T10:03:58;101719.66;;;14.03;56.48
37610;BME280;23457;51.966;8.230;2023-04-30T10:06:31;101719.47;;;13.92;56.78
37610;BME280;23457;51.966;8.230;2023-04-30T10:09:09;101714.31;;;13.98;58.23
37610;BME280;23457;51.966;8.230;2023-04-30T10:11:37;101716.63;;;14.31;59.62
37610;BME280;23457;51.966;8.230;2023-04-30T10:14:11;101716.44;;;14.21;56.72
37610;BME280;23457;51.966;8.230;2023-04-30T10:16:57;101717.34;;;14.23;57.27
37610;BME280;23457;51.966;8.230;2023-04-30T10:19:29;101711.53;;;13.88;56.83
37610;BME280;23457;51.966;8.230;2023-04-30T10:21:56;101717.50;;;13.82;58.33
37610;BME280;23457;51.966;8.230;2023-04-30T10:24:28;101711.78;;;14.02;57.44
37610;BME280;23457;51.966;8.230;2023-04-30T10:26:56;101703.34;;;14.18;58.02
37610;BME280;23457;51.966;8.230;2023-04-30T10:29:22;101698.78;;;14.56;56.49
37610;BME280;23457;51.966;8.230;2023-04-30T10:31:50;101701.34;;;14.54;55.77
37610;BME280;23457;51.966;8.230;2023-04-30T10:37:00;101700.78;;;14.75;57.42
37610;BME280;23457;51.966;8.230;2023-04-30T10:39:31;101693.91;;;14.82;58.02
37610;BME280;23457;51.966;8.230;2023-04-30T10:42:03;101692.72;;;15.25;59.63
37610;BME280;23457;51.966;8.230;2023-04-30T10:44:33;101692.25;;;15.55;55.63
37610;BME280;23457;51.966;8.230;2023-04-30T10:47:02;101691.06;;;15.30;54.54
37610;BME280;23457;51.966;8.230;2023-04-30T10:49:29;101691.53;;;15.00;54.40
37610;BME280;23457;51.966;8.230;2023-04-30T10:52:03;101685.13;;;14.78;55.36
37610;BME280;23457;51.966;8.230;2023-04-30T10:54:34;101691.38;;;14.88;55.36
37610;BME280;23457;51.966;8.230;2023-04-30T10:57:08;101683.69;;;15.00;54.61
37610;BME280;23457;51.966;8.230;2023-04-30T10:59:43;101681.00;;;14.95;54.67
37610;BME280;23457;51.966;8.230;2023-04-30T11:02:15;101671.69;;;15.16;55.88
37610;BME280;23457;51.966;8.230;2023-04-30T11:07:32;101668.94;;;15.84;54.77
37610;BME280;23457;51.966;8.230;2023-04-30T11:10:00;101655.34;;;16.27;52.60
37610;BME280;23457;51.966;8.230;2023-04-30T11:12:40;101656.06;;;16.05;51.13
37610;BME280;23457;51.966;8.230;2023-04-30T11:15:13;101659.63;;;16.16;51.25
37610;BME280;23457;51.966;8.230;2023-04-30T11:17:44;101648.66;;;16.72;54.22
37610;BME280;23457;51.966;8.230;2023-04-30T11:20:12;101647.91;;;16.90;51.08
37610;BME280;23457;51.966;8.230;2023-04-30T11:22:40;101650.28;;;16.53;49.52
37610;BME280;23457;51.966;8.230;2023-04-30T11:25:11;101652.00;;;16.49;50.38
37610;BME280;23457;51.966;8.230;2023-04-30T11:27:42;101648.56;;;16.61;48.22
37610;BME280;23457;51.966;8.230;2023-04-30T11:30:15;101646.91;;;16.68;50.39
37610;BME280;23457;51.966;8.230;2023-04-30T11:32:45;101646.63;;;16.34;48.65
37610;BME280;23457;51.966;8.230;2023-04-30T11:35:16;101649.94;;;16.04;49.40
37610;BME280;23457;51.966;8.230;2023-04-30T11:37:44;101636.16;;;16.36;49.27
37610;BME280;23457;51.966;8.230;2023-04-30T11:40:13;101638.78;;;16.36;47.98
37610;BME280;23457;51.966;8.230;2023-04-30T11:42:42;101635.06;;;16.03;47.99
37610;BME280;23457;51.966;8.230;2023-04-30T11:45:16;101631.88;;;16.50;47.65
37610;BME280;23457;51.966;8.230;2023-04-30T11:47:48;101625.50;;;16.13;48.73
37610;BME280;23457;51.966;8.230;2023-04-30T11:50:21;101622.28;;;16.54;49.28
37610;BME280;23457;51.966;8.230;2023-04-30T11:52:54;101624.06;;;16.61;48.62
37610;BME280;23457;51.966;8.230;2023-04-30T11:55:24;101617.19;;;16.76;47.45
37610;BME280;23457;51.966;8.230;2023-04-30T11:57:52;101620.44;;;16.39;47.55
37610;BME280;23457;51.966;8.230;2023-04-30T12:00:25;101620.63;;;16.63;48.01
37610;BME280;23457;51.966;8.230;2023-04-30T12:03:03;101612.94;;;16.97;47.18
37610;BME280;23457;51.966;8.230;2023-04-30T12:05:30;101612.69;;;16.54;46.60
37610;BME280;23457;51.966;8.230;2023-04-30T12:08:02;101596.31;;;17.04;50.77
37610;BME280;23457;51.966;8.230;2023-04-30T12:10:32;101603.38;;;17.20;47.90
37610;BME280;23457;51.966;8.230;2023-04-30T12:12:59;101604.66;;;16.31;48.33
37610;BME280;23457;51.966;8.230;2023-04-30T12:15:29;101604.97;;;16.80;47.70
37610;BME280;23457;51.966;8.230;2023-04-30T12:17:57;101604.19;;;17.10;46.28
37610;BME280;23457;51.966;8.230;2023-04-30T12:20:27;101602.53;;;17.48;46.10
37610;BME280;23457;51.966;8.230;2023-04-30T12:22:54;101599.72;;;16.80;47.08
37610;BME280;23457;51.966;8.230;2023-04-30T12:25:22;101606.72;;;16.78;46.70
37610;BME280;23457;51.966;8.230;2023-04-30T12:27:50;101602.13;;;16.45;46.93
37610;BME280;23457;51.966;8.230;2023-04-30T12:30:24;101608.16;;;16.29;46.66
37610;BME280;23457;51.966;8.230;2023-04-30T12:32:55;101600.28;;;16.30;48.15
37610;BME280;23457;51.966;8.230;2023-04-30T12:35:22;101604.09;;;16.86;46.68
37610;BME280;23457;51.966;8.230;2023-04-30T12:37:52;101593.59;;;16.86;46.28
37610;BME280;23457;51.966;8.230;2023-04-30T12:40:20;101585.66;;;16.72;48.11
37610;BME280;23457;51.966;8.230;2023-04-30T12:42:47;101589.16;;;16.72;48.31
37610;BME280;23457;51.966;8.230;2023-04-30T12:45:51;101592.72;;;16.77;48.14
37610;BME280;23457;51.966;8.230;2023-04-30T12:48:23;101581.50;;;17.27;46.99
37610;BME280;23457;51.966;8.230;2023-04-30T12:51:02;101579.66;;;16.96;47.16
37610;BME280;23457;51.966;8.230;2023-04-30T12:53:31;101590.09;;;16.77;46.71
37610;BME280;23457;51.966;8.230;2023-04-30T12:56:08;101577.88;;;16.90;46.93
37610;BME280;23457;51.966;8.230;2023-04-30T12:58:35;101573.56;;;17.10;47.01
37610;BME280;23457;51.966;8.230;2023-04-30T13:01:05;101573.63;;;17.21;46.90
37610;BME280;23457;51.966;8.230;2023-04-30T13:03:36;101565.72;;;17.21;48.65
37610;BME280;23457;51.966;8.230;2023-04-30T13:06:03;101563.03;;;17.01;46.68
37610;BME280;23457;51.966;8.230;2023-04-30T13:08:30;101554.19;;;16.76;46.94
37610;BME280;23457;51.966;8.230;2023-04-30T13:11:04;101556.00;;;16.93;48.28
37610;BME280;23457;51.966;8.230;2023-04-30T13:13:31;101557.84;;;17.27;46.80
37610;BME280;23457;51.966;8.230;2023-04-30T13:15:58;101552.56;;;17.13;46.33
37610;BME280;23457;51.966;8.230;2023-04-30T13:18:25;101551.69;;;17.11;46.36
37610;BME280;23457;51.966;8.230;2023-04-30T13:20:52;101552.53;;;17.00;46.08
37610;BME280;23457;51.966;8.230;2023-04-30T13:23:19;101543.84;;;17.19;49.79
37610;BME280;23457;51.966;8.230;2023-04-30T13:25:45;101550.81;;;17.09;45.79
37610;BME280;23457;51.966;8.230;2023-04-30T13:28:12;101548.19;;;17.08;46.73